Time;durP1;ratioP1;P1;durP2;ratioP2;P2;SDS_P1;SDS_P2;PMS_P1;PMS_P2;Temp;Humidity;BMP_temperature;BMP_pressure;BME280_temperature;BME280_humidity;BME280_pressure;Samples;Min_cycle;Max_cycle;Signal;HPM_P1;HPM_P2
2022/09/13 00:00:42;;;;;;;5.03;2.80;;;16.30;99.90;;;;;;5079115;28;20467;-43
2022/09/13 00:03:11;;;;;;;4.20;3.30;;;16.30;99.90;;;;;;5079442;28;20446;-42
2022/09/13 00:05:42;;;;;;;3.67;2.77;;;16.20;99.90;;;;;;5079284;28;20467;-44
2022/09/13 00:08:09;;;;;;;3.10;2.80;;;16.20;99.90;;;;;;5078918;28;20411;-48
2022/09/13 00:10:37;;;;;;;3.40;2.93;;;16.20;99.90;;;;;;5079843;28;20471;-55
2022/09/13 00:13:04;;;;;;;7.30;3.70;;;16.20;99.90;;;;;;5079302;28;20436;-44
2022/09/13 00:15:31;;;;;;;3.50;2.70;;;16.20;99.90;;;;;;5078866;28;20502;-46
2022/09/13 00:17:58;;;;;;;4.00;3.63;;;16.20;99.90;;;;;;5078734;28;20475;-46
2022/09/13 00:20:27;;;;;;;3.37;2.87;;;16.10;99.90;;;;;;5079198;28;20447;-48
2022/09/13 00:22:54;;;;;;;4.23;3.70;;;16.10;99.90;;;;;;5078795;28;20443;-50
2022/09/13 00:25:21;;;;;;;2.73;2.53;;;16.10;99.90;;;;;;5078925;28;20467;-41
2022/09/13 00:27:49;;;;;;;3.70;2.80;;;16.10;99.90;;;;;;5079013;28;20439;-45
2022/09/13 00:30:16;;;;;;;4.23;2.90;;;16.10;99.90;;;;;;5079406;28;20477;-41
2022/09/13 00:32:43;;;;;;;4.23;3.20;;;16.10;99.90;;;;;;5079278;28;20446;-43
2022/09/13 00:35:10;;;;;;;3.10;2.80;;;16.10;99.90;;;;;;5078961;28;20469;-49
2022/09/13 00:37:38;;;;;;;4.60;3.20;;;16.00;99.90;;;;;;5078613;28;20474;-46
2022/09/13 00:40:10;;;;;;;3.50;3.20;;;16.00;99.90;;;;;;5078995;28;20482;-49
2022/09/13 00:42:37;;;;;;;3.57;2.70;;;15.90;99.90;;;;;;5078734;28;20498;-44
2022/09/13 00:45:15;;;;;;;3.63;3.00;;;15.90;99.90;;;;;;5078410;28;20451;-52
2022/09/13 00:47:48;;;;;;;3.60;2.60;;;15.90;99.90;;;;;;5078379;28;20750;-44
2022/09/13 00:50:21;;;;;;;3.37;2.97;;;15.90;99.90;;;;;;5071971;28;20499;-48
2022/09/13 00:52:57;;;;;;;2.70;2.50;;;15.90;99.90;;;;;;5058319;28;20467;-47
2022/09/13 00:55:28;;;;;;;3.63;2.93;;;15.90;99.90;;;;;;5058268;28;20472;-41
2022/09/13 00:58:01;;;;;;;3.87;3.20;;;15.80;99.90;;;;;;5058124;28;20478;-43
2022/09/13 01:00:28;;;;;;;3.07;2.77;;;15.80;99.90;;;;;;5057271;28;20440;-43
2022/09/13 01:02:58;;;;;;;5.93;3.37;;;15.80;99.90;;;;;;5057947;28;20508;-42
2022/09/13 01:05:29;;;;;;;5.13;2.90;;;15.80;99.90;;;;;;5058371;28;20466;-42
2022/09/13 01:07:59;;;;;;;3.70;2.80;;;15.80;99.90;;;;;;5058974;28;20477;-49
2022/09/13 01:10:26;;;;;;;3.00;2.40;;;15.80;99.90;;;;;;5057869;28;20472;-46
2022/09/13 01:12:58;;;;;;;3.70;2.87;;;15.80;99.90;;;;;;5058077;28;20437;-44
2022/09/13 01:15:25;;;;;;;4.00;3.20;;;15.80;99.90;;;;;;5057493;28;20929;-38
2022/09/13 01:17:54;;;;;;;4.30;3.53;;;15.70;99.90;;;;;;5058223;28;20480;-40
2022/09/13 01:20:31;;;;;;;4.73;3.40;;;15.80;99.90;;;;;;5057498;28;20525;-42
2022/09/13 01:23:32;;;;;;;3.63;2.73;;;15.80;99.90;;;;;;5057784;28;20444;-44
2022/09/13 01:26:34;;;;;;;3.30;3.00;;;15.80;99.90;;;;;;5057390;28;20519;-44
2022/09/13 01:29:38;;;;;;;3.00;2.50;;;15.80;99.90;;;;;;5057146;28;20416;-44
2022/09/13 01:32:18;;;;;;;3.37;3.07;;;15.70;99.90;;;;;;5067739;28;20431;-43
2022/09/13 01:34:55;;;;;;;3.10;2.80;;;15.80;99.90;;;;;;5077267;28;20439;-43
2022/09/13 01:37:37;;;;;;;3.83;2.70;;;15.70;99.90;;;;;;5076884;28;20515;-46
2022/09/13 01:40:16;;;;;;;3.00;2.60;;;15.70;99.90;;;;;;5077701;28;20436;-43
2022/09/13 01:42:57;;;;;;;3.30;2.40;;;15.70;99.90;;;;;;5077414;28;20531;-41
2022/09/13 01:45:33;;;;;;;4.20;3.20;;;15.70;99.90;;;;;;5077454;28;20462;-45
2022/09/13 01:48:08;;;;;;;3.53;3.07;;;15.70;99.90;;;;;;5077967;28;20459;-56
2022/09/13 01:50:39;;;;;;;3.30;3.00;;;15.70;99.90;;;;;;5067702;28;20424;-44
2022/09/13 01:53:19;;;;;;;4.03;3.20;;;15.60;99.90;;;;;;5056839;28;20424;-44
2022/09/13 01:55:51;;;;;;;5.20;3.30;;;15.60;99.90;;;;;;5056609;28;20456;-43
2022/09/13 01:58:24;;;;;;;2.80;2.60;;;15.60;99.90;;;;;;5061549;28;20463;-56
2022/09/13 02:01:00;;;;;;;4.47;3.03;;;15.60;99.90;;;;;;5056855;28;20986;-47
2022/09/13 02:03:35;;;;;;;4.17;2.63;;;15.60;99.90;;;;;;5056886;28;20456;-42
2022/09/13 02:06:07;;;;;;;3.30;3.00;;;15.50;99.90;;;;;;5056380;28;20561;-43
2022/09/13 02:08:40;;;;;;;3.87;2.50;;;15.50;99.90;;;;;;5056798;28;20421;-43
2022/09/13 02:11:12;;;;;;;4.27;2.83;;;15.50;99.90;;;;;;5056846;28;20468;-40
2022/09/13 02:13:44;;;;;;;3.00;2.70;;;15.50;99.90;;;;;;5056930;28;20439;-44
2022/09/13 02:16:16;;;;;;;4.03;2.93;;;15.40;99.90;;;;;;5057022;28;20483;-42
2022/09/13 02:18:48;;;;;;;4.13;3.33;;;15.40;99.90;;;;;;5056775;28;20452;-45
2022/09/13 02:21:22;;;;;;;3.07;2.63;;;15.40;99.90;;;;;;5056303;28;20535;-43
2022/09/13 02:23:52;;;;;;;3.83;2.83;;;15.40;99.90;;;;;;5056283;28;20471;-43
2022/09/13 02:26:21;;;;;;;3.40;2.47;;;15.40;99.90;;;;;;5056443;28;20494;-43
2022/09/13 02:28:51;;;;;;;3.87;2.87;;;15.30;99.90;;;;;;5056438;28;20500;-44
2022/09/13 02:31:25;;;;;;;3.90;3.20;;;15.30;99.90;;;;;;5056407;28;20443;-46
2022/09/13 02:33:56;;;;;;;3.60;2.93;;;15.30;99.90;;;;;;5056270;28;20409;-44
2022/09/13 02:36:27;;;;;;;3.83;3.00;;;15.30;99.90;;;;;;5056629;28;20412;-41
2022/09/13 02:38:59;;;;;;;3.20;2.90;;;15.30;99.90;;;;;;5056139;28;20458;-43
2022/09/13 02:41:34;;;;;;;3.83;3.53;;;15.30;99.90;;;;;;5071595;28;20451;-46
2022/09/13 02:44:06;;;;;;;3.13;2.73;;;15.30;99.90;;;;;;5076616;28;20469;-41
2022/09/13 02:46:49;;;;;;;3.40;3.00;;;15.30;99.90;;;;;;5076244;28;20420;-42
2022/09/13 02:49:26;;;;;;;4.77;3.33;;;15.30;99.90;;;;;;5076185;28;20433;-43
2022/09/13 02:51:59;;;;;;;3.13;2.77;;;15.30;99.90;;;;;;5076606;28;20453;-41
2022/09/13 02:54:33;;;;;;;3.73;2.87;;;15.30;99.90;;;;;;5076154;28;20416;-47
2022/09/13 02:57:05;;;;;;;5.13;3.40;;;15.30;99.90;;;;;;5076422;28;20486;-44
2022/09/13 02:59:33;;;;;;;3.67;2.63;;;15.40;99.90;;;;;;5075950;28;20478;-47
2022/09/13 03:02:08;;;;;;;4.53;3.73;;;15.40;99.90;;;;;;5075948;28;20443;-45
2022/09/13 03:04:36;;;;;;;7.30;3.10;;;15.40;99.90;;;;;;5076259;28;20462;-45
2022/09/13 03:07:03;;;;;;;3.03;2.77;;;15.40;99.90;;;;;;5076130;28;20451;-48
2022/09/13 03:09:31;;;;;;;3.20;2.80;;;15.40;99.90;;;;;;5076048;28;20495;-46
2022/09/13 03:12:16;;;;;;;4.50;3.77;;;15.40;99.90;;;;;;5075825;28;20464;-42
2022/09/13 03:14:50;;;;;;;3.53;2.77;;;15.40;99.90;;;;;;5075808;28;20431;-42
2022/09/13 03:17:36;;;;;;;4.37;3.67;;;15.40;99.90;;;;;;5057360;28;20483;-46
2022/09/13 03:20:09;;;;;;;3.70;3.03;;;15.40;99.90;;;;;;5056706;28;20447;-39
2022/09/13 03:22:55;;;;;;;2.97;2.67;;;15.40;99.90;;;;;;5053423;28;20440;-38
2022/09/13 03:25:30;;;;;;;3.53;3.23;;;15.40;99.90;;;;;;5063705;28;20420;-42
2022/09/13 03:28:05;;;;;;;4.37;3.00;;;15.40;99.90;;;;;;5064662;28;20492;-36
2022/09/13 03:30:34;;;;;;;2.83;2.50;;;15.40;99.90;;;;;;5065585;28;20431;-37
2022/09/13 03:33:09;;;;;;;7.23;3.13;;;15.40;99.90;;;;;;5063467;28;20519;-40
2022/09/13 03:35:42;;;;;;;3.00;2.70;;;15.40;99.90;;;;;;5065502;28;20435;-39
2022/09/13 03:38:12;;;;;;;2.97;2.67;;;15.30;99.90;;;;;;5067025;28;22393;-40
2022/09/13 03:40:45;;;;;;;3.33;2.67;;;15.30;99.90;;;;;;5062793;28;20439;-40
2022/09/13 03:43:16;;;;;;;2.93;2.63;;;15.30;99.90;;;;;;5062062;28;20463;-39
2022/09/13 03:45:46;;;;;;;3.63;3.17;;;15.30;99.90;;;;;;5064635;28;20427;-39
2022/09/13 03:48:14;;;;;;;4.27;3.87;;;15.20;99.90;;;;;;5063980;28;20467;-40
2022/09/13 03:50:43;;;;;;;4.33;3.60;;;15.20;99.90;;;;;;5062036;28;20428;-33
2022/09/13 03:53:11;;;;;;;4.20;3.80;;;15.20;99.90;;;;;;5057350;28;20431;-38
2022/09/13 03:55:41;;;;;;;3.30;2.80;;;15.20;99.90;;;;;;5059879;28;20495;-45
2022/09/13 03:58:11;;;;;;;3.60;2.97;;;15.20;99.90;;;;;;5060818;28;20436;-38
2022/09/13 04:00:40;;;;;;;8.83;3.03;;;15.20;99.90;;;;;;5060602;28;20431;-45
2022/09/13 04:03:07;;;;;;;3.87;3.47;;;15.20;99.90;;;;;;5059282;28;20475;-42
2022/09/13 04:05:35;;;;;;;4.33;3.40;;;15.20;99.90;;;;;;5059572;28;20517;-52
2022/09/13 04:08:04;;;;;;;3.70;3.10;;;15.20;99.90;;;;;;5059356;28;20444;-44
2022/09/13 04:10:31;;;;;;;3.43;3.13;;;15.20;99.90;;;;;;5060101;28;20470;-44
2022/09/13 04:13:01;;;;;;;5.07;3.53;;;15.20;99.90;;;;;;5059333;28;20441;-45
2022/09/13 04:15:30;;;;;;;3.53;3.23;;;15.20;99.90;;;;;;5059153;28;20441;-41
2022/09/13 04:17:56;;;;;;;5.97;2.90;;;15.20;99.90;;;;;;5060308;28;20444;-40
2022/09/13 04:20:23;;;;;;;4.13;3.73;;;15.20;99.90;;;;;;5058773;28;20475;-40
2022/09/13 04:22:54;;;;;;;4.00;3.50;;;15.20;99.90;;;;;;5058286;28;20439;-41
2022/09/13 04:25:23;;;;;;;3.93;3.20;;;15.20;99.90;;;;;;5058942;28;20474;-47
2022/09/13 04:27:54;;;;;;;4.10;3.70;;;15.20;99.90;;;;;;5059037;28;20487;-45
2022/09/13 04:30:22;;;;;;;4.50;4.10;;;15.20;99.90;;;;;;5058638;28;20476;-45
2022/09/13 04:32:50;;;;;;;4.50;4.10;;;15.20;99.90;;;;;;5058883;28;20444;-44
2022/09/13 04:35:18;;;;;;;4.30;3.97;;;15.20;99.90;;;;;;5058901;28;20468;-45
2022/09/13 04:37:45;;;;;;;4.03;3.63;;;15.20;99.90;;;;;;5058511;28;20444;-41
2022/09/13 04:40:12;;;;;;;5.80;3.93;;;15.20;99.90;;;;;;5058739;28;20541;-46
2022/09/13 04:42:40;;;;;;;4.50;4.10;;;15.10;99.90;;;;;;5059123;28;20440;-41
2022/09/13 04:45:08;;;;;;;4.00;3.33;;;15.10;99.90;;;;;;5059456;28;20452;-44
2022/09/13 04:47:35;;;;;;;6.83;2.90;;;15.10;99.90;;;;;;5059108;28;20462;-52
2022/09/13 04:50:02;;;;;;;5.60;4.27;;;15.10;99.90;;;;;;5059096;28;20468;-46
2022/09/13 04:52:29;;;;;;;5.20;3.70;;;15.10;99.90;;;;;;5058719;28;20434;-46
2022/09/13 04:54:59;;;;;;;3.93;3.53;;;15.10;99.90;;;;;;5058084;28;20490;-45
2022/09/13 04:57:25;;;;;;;4.73;3.87;;;15.10;99.90;;;;;;5058117;28;20444;-47
2022/09/13 04:59:54;;;;;;;4.53;4.10;;;15.00;99.90;;;;;;5058213;28;20470;-44
2022/09/13 05:02:20;;;;;;;4.30;3.67;;;15.00;99.90;;;;;;5058438;28;20488;-43
2022/09/13 05:04:47;;;;;;;4.97;4.40;;;15.00;99.90;;;;;;5057985;28;20440;-47
2022/09/13 05:07:14;;;;;;;4.90;4.27;;;15.00;99.90;;;;;;5058501;28;20464;-43
2022/09/13 05:09:41;;;;;;;5.70;4.23;;;15.00;99.90;;;;;;5058573;28;20448;-52
2022/09/13 05:12:10;;;;;;;5.47;4.03;;;15.00;99.90;;;;;;5057871;28;20456;-42
2022/09/13 05:14:37;;;;;;;12.50;4.50;;;15.00;99.90;;;;;;5057560;28;20448;-45
2022/09/13 05:17:05;;;;;;;5.20;4.70;;;15.10;99.90;;;;;;5057993;28;20435;-43
2022/09/13 05:19:33;;;;;;;6.33;4.70;;;15.10;99.90;;;;;;5057780;28;20480;-43
2022/09/13 05:22:00;;;;;;;5.30;4.47;;;15.20;99.90;;;;;;5057429;28;20479;-41
2022/09/13 05:24:30;;;;;;;7.90;4.63;;;15.20;99.90;;;;;;5057520;28;20508;-45
2022/09/13 05:26:57;;;;;;;5.93;5.00;;;15.20;99.90;;;;;;5058074;28;20432;-41
2022/09/13 05:29:24;;;;;;;5.07;4.37;;;15.20;99.90;;;;;;5059242;28;20444;-39
2022/09/13 05:31:51;;;;;;;6.70;4.97;;;15.30;99.90;;;;;;5057883;28;20450;-42
2022/09/13 05:34:19;;;;;;;5.93;4.87;;;15.20;99.90;;;;;;5058443;28;20449;-42
2022/09/13 05:36:49;;;;;;;5.43;4.90;;;15.20;99.90;;;;;;5057411;28;20433;-43
2022/09/13 05:39:17;;;;;;;5.43;4.43;;;15.20;99.90;;;;;;5056983;28;20464;-44
2022/09/13 05:41:50;;;;;;;6.80;4.70;;;15.20;99.90;;;;;;5057254;28;20465;-41
2022/09/13 05:44:23;;;;;;;5.77;5.20;;;15.20;99.90;;;;;;5057527;28;20440;-42
2022/09/13 05:46:49;;;;;;;5.27;4.37;;;15.30;99.90;;;;;;5056604;28;20440;-40
2022/09/13 05:49:16;;;;;;;8.13;5.13;;;15.30;99.90;;;;;;5056334;28;20424;-44
2022/09/13 05:51:44;;;;;;;5.63;4.80;;;15.30;99.90;;;;;;5056762;28;20468;-48
2022/09/13 05:54:12;;;;;;;8.73;4.63;;;15.20;99.90;;;;;;5056652;28;20456;-43
2022/09/13 05:56:39;;;;;;;5.13;4.60;;;15.20;99.90;;;;;;5056153;28;20433;-45
2022/09/13 05:59:07;;;;;;;6.43;5.10;;;15.20;99.90;;;;;;5057056;28;20482;-43
2022/09/13 06:01:34;;;;;;;8.03;5.00;;;15.20;99.90;;;;;;5057090;28;20471;-39
2022/09/13 06:04:01;;;;;;;5.97;5.07;;;15.20;99.90;;;;;;5057136;28;20570;-35
2022/09/13 06:06:28;;;;;;;5.07;4.53;;;15.30;99.90;;;;;;5058019;28;20471;-46
2022/09/13 06:08:57;;;;;;;10.67;5.10;;;15.30;99.90;;;;;;5056977;28;20471;-46
2022/09/13 06:11:25;;;;;;;7.97;4.90;;;15.30;99.90;;;;;;5056953;28;20463;-41
2022/09/13 06:13:53;;;;;;;5.57;4.60;;;15.30;99.90;;;;;;5056289;28;20466;-46
2022/09/13 06:16:26;;;;;;;14.17;6.67;;;15.40;99.90;;;;;;5056566;28;20408;-46
2022/09/13 06:18:53;;;;;;;6.23;5.07;;;15.40;99.90;;;;;;5056567;28;20574;-43
2022/09/13 06:21:22;;;;;;;5.97;5.20;;;15.40;99.90;;;;;;5056443;28;20456;-41
2022/09/13 06:23:50;;;;;;;6.50;5.50;;;15.30;99.90;;;;;;5056266;28;20503;-44
2022/09/13 06:26:21;;;;;;;6.43;5.47;;;15.30;99.90;;;;;;5056487;28;20466;-41
2022/09/13 06:28:50;;;;;;;6.50;5.23;;;15.30;99.90;;;;;;5056099;28;20428;-46
2022/09/13 06:31:19;;;;;;;7.43;5.87;;;15.30;99.90;;;;;;5056370;28;20466;-44
2022/09/13 06:33:45;;;;;;;7.13;5.30;;;15.30;99.90;;;;;;5056346;28;20467;-39
2022/09/13 06:36:14;;;;;;;8.57;7.70;;;15.20;99.90;;;;;;5055928;28;20475;-45
2022/09/13 06:38:43;;;;;;;5.87;5.10;;;15.20;99.90;;;;;;5055884;28;20452;-42
2022/09/13 06:41:12;;;;;;;6.20;5.60;;;15.20;99.90;;;;;;5056324;28;20886;-43
2022/09/13 06:43:41;;;;;;;7.20;5.60;;;15.20;99.90;;;;;;5056068;28;20429;-41
2022/09/13 06:46:14;;;;;;;8.50;6.57;;;15.20;99.90;;;;;;5056806;28;20444;-48
2022/09/13 06:48:43;;;;;;;9.43;5.50;;;15.30;99.90;;;;;;5056896;28;20528;-46
2022/09/13 06:51:11;;;;;;;5.73;5.03;;;15.30;99.90;;;;;;5056067;28;20495;-43
2022/09/13 06:53:42;;;;;;;8.00;5.20;;;15.30;99.90;;;;;;5056031;28;20474;-41
2022/09/13 06:56:11;;;;;;;8.10;5.70;;;15.30;99.90;;;;;;5055802;28;20416;-44
2022/09/13 06:58:41;;;;;;;7.33;6.17;;;15.40;99.90;;;;;;5056455;28;20471;-44
2022/09/13 07:01:10;;;;;;;8.57;6.10;;;15.50;99.90;;;;;;5060156;28;20464;-42
2022/09/13 07:03:38;;;;;;;8.40;5.50;;;15.50;99.90;;;;;;5060409;28;20417;-43
2022/09/13 07:06:10;;;;;;;7.83;5.40;;;15.60;99.90;;;;;;5060568;28;20438;-52
2022/09/13 07:08:36;;;;;;;6.27;5.07;;;15.60;99.90;;;;;;5060208;28;20427;-47
2022/09/13 07:11:05;;;;;;;7.07;5.57;;;15.70;99.90;;;;;;5060368;28;20471;-45
2022/09/13 07:13:32;;;;;;;7.00;6.30;;;15.80;99.90;;;;;;5059898;28;20502;-49
2022/09/13 07:16:03;;;;;;;8.43;6.07;;;16.00;99.90;;;;;;5060123;28;20519;-49
2022/09/13 07:18:30;;;;;;;9.70;6.37;;;16.00;99.90;;;;;;5060249;28;20432;-44
2022/09/13 07:21:02;;;;;;;8.23;6.37;;;16.10;99.90;;;;;;5059965;28;20636;-45
2022/09/13 07:23:29;;;;;;;8.80;7.10;;;16.20;99.90;;;;;;5060236;28;20444;-42
2022/09/13 07:26:00;;;;;;;8.67;5.80;;;16.30;99.90;;;;;;5059549;28;20448;-52
2022/09/13 07:28:29;;;;;;;9.20;6.63;;;16.20;99.90;;;;;;5059870;28;20427;-40
2022/09/13 07:30:57;;;;;;;10.47;6.97;;;16.20;99.90;;;;;;5059216;28;20915;-48
2022/09/13 07:33:26;;;;;;;11.30;5.90;;;16.20;99.90;;;;;;5059765;28;20440;-48
2022/09/13 07:35:56;;;;;;;6.50;5.87;;;16.20;99.90;;;;;;5059387;28;20440;-46
2022/09/13 07:38:23;;;;;;;9.80;6.60;;;16.20;99.90;;;;;;5059632;28;20459;-36
2022/09/13 07:40:54;;;;;;;7.10;5.70;;;16.30;99.90;;;;;;5059054;28;20493;-43
2022/09/13 07:43:21;;;;;;;6.73;5.83;;;16.30;99.90;;;;;;5058801;28;20486;-44
2022/09/13 07:45:48;;;;;;;7.63;5.57;;;16.40;99.90;;;;;;5058884;28;20444;-44
2022/09/13 07:48:15;;;;;;;8.70;6.30;;;16.50;99.90;;;;;;5059064;28;20539;-40
2022/09/13 07:50:43;;;;;;;7.30;5.90;;;16.60;99.90;;;;;;5059095;28;20446;-44
2022/09/13 07:53:10;;;;;;;8.67;6.30;;;16.60;99.90;;;;;;5058909;28;20421;-42
2022/09/13 07:55:37;;;;;;;8.73;6.67;;;16.70;99.90;;;;;;5059602;28;20436;-49
2022/09/13 07:58:06;;;;;;;9.80;7.03;;;16.70;99.90;;;;;;5059092;28;20503;-46
2022/09/13 08:00:34;;;;;;;8.97;6.80;;;16.80;99.90;;;;;;5058285;28;20578;-51
2022/09/13 08:03:01;;;;;;;16.10;6.67;;;16.90;99.90;;;;;;5059018;28;20442;-45
2022/09/13 08:05:29;;;;;;;8.87;6.63;;;16.90;99.90;;;;;;5058332;28;20460;-40
2022/09/13 08:07:57;;;;;;;8.70;6.90;;;17.00;99.90;;;;;;5057858;28;20516;-51
2022/09/13 08:10:24;;;;;;;7.90;6.50;;;17.20;99.90;;;;;;5057760;28;20448;-44
2022/09/13 08:12:51;;;;;;;8.50;6.43;;;17.20;99.90;;;;;;5058610;28;20452;-37
2022/09/13 08:15:18;;;;;;;14.27;7.20;;;17.30;99.90;;;;;;5058124;28;20491;-47
2022/09/13 08:17:45;;;;;;;10.47;7.10;;;17.40;99.90;;;;;;5057930;28;20445;-47
2022/09/13 08:20:11;;;;;;;9.70;7.30;;;17.40;99.90;;;;;;5058283;28;20511;-47
2022/09/13 08:22:38;;;;;;;10.47;7.17;;;17.40;99.90;;;;;;5058532;28;20488;-48
2022/09/13 08:25:08;;;;;;;8.90;7.03;;;17.50;99.90;;;;;;5058075;28;20468;-46
2022/09/13 08:27:34;;;;;;;11.50;7.40;;;17.60;99.90;;;;;;5057679;28;20455;-49
2022/09/13 08:30:01;;;;;;;8.20;6.67;;;17.70;99.90;;;;;;5058031;28;20430;-47
2022/09/13 08:32:28;;;;;;;8.70;6.50;;;17.90;99.90;;;;;;5057529;28;20444;-48
2022/09/13 08:34:56;;;;;;;8.30;6.00;;;18.00;99.90;;;;;;5058205;28;20455;-49
2022/09/13 08:37:26;;;;;;;9.33;6.77;;;18.10;99.90;;;;;;5058006;28;20516;-47
2022/09/13 08:39:53;;;;;;;12.47;7.37;;;18.00;99.90;;;;;;5058166;28;20542;-45
2022/09/13 08:42:36;;;;;;;7.43;6.30;;;18.00;99.90;;;;;;5057894;28;20440;-41
2022/09/13 08:45:18;;;;;;;11.10;6.67;;;17.90;99.90;;;;;;5058286;28;20467;-48
2022/09/13 08:47:53;;;;;;;8.10;6.37;;;18.00;99.90;;;;;;5017374;28;20434;-39
2022/09/13 08:50:23;;;;;;;7.97;6.20;;;18.10;99.90;;;;;;5017675;28;20457;-43
2022/09/13 08:53:13;;;;;;;7.37;6.17;;;18.50;99.90;;;;;;5017836;28;20472;-52
2022/09/13 08:55:49;;;;;;;9.17;5.50;;;18.90;99.90;;;;;;5017582;28;20473;-46
2022/09/13 08:58:56;;;;;;;9.37;5.97;;;19.20;99.90;;;;;;5017273;28;20473;-48
2022/09/13 09:01:38;;;;;;;8.17;6.50;;;19.90;99.90;;;;;;5009046;28;20494;-43
2022/09/13 09:04:15;;;;;;;6.93;5.33;;;21.00;99.90;;;;;;5017833;28;20395;-45
2022/09/13 09:06:43;;;;;;;5.93;5.33;;;21.60;99.90;;;;;;5017117;28;20483;-46
2022/09/13 09:09:16;;;;;;;5.77;5.17;;;21.60;99.90;;;;;;5016754;28;20446;-36
2022/09/13 09:11:48;;;;;;;6.93;6.00;;;21.40;99.90;;;;;;5016359;28;20502;-46
2022/09/13 09:14:22;;;;;;;7.20;5.77;;;21.00;99.90;;;;;;5016421;28;20511;-43
2022/09/13 09:16:53;;;;;;;11.00;5.60;;;20.90;99.90;;;;;;5016458;28;20457;-45
2022/09/13 09:19:23;;;;;;;7.67;4.97;;;20.80;99.90;;;;;;5016384;28;20525;-47
2022/09/13 09:21:51;;;;;;;9.70;6.10;;;20.90;99.90;;;;;;5016064;28;20596;-42
2022/09/13 09:24:21;;;;;;;7.47;6.00;;;21.30;99.90;;;;;;5030714;28;20467;-43
2022/09/13 09:26:49;;;;;;;5.20;4.23;;;21.70;99.90;;;;;;5057292;28;20432;-46
2022/09/13 09:29:24;;;;;;;5.20;4.60;;;21.90;99.90;;;;;;5057261;28;20456;-48
2022/09/13 09:32:08;;;;;;;6.80;5.17;;;22.20;99.90;;;;;;5057557;28;20496;-48
2022/09/13 09:34:48;;;;;;;7.47;5.57;;;22.40;99.90;;;;;;5057227;28;20468;-43
2022/09/13 09:37:20;;;;;;;6.97;5.57;;;22.40;99.90;;;;;;5057207;28;20452;-44
2022/09/13 09:39:49;;;;;;;6.90;5.70;;;22.50;99.90;;;;;;5056836;28;20464;-42
2022/09/13 09:42:20;;;;;;;5.97;4.17;;;23.20;99.90;;;;;;5056212;28;20474;-44
2022/09/13 09:44:52;;;;;;;5.23;4.73;;;23.80;99.90;;;;;;5056142;28;20432;-41
2022/09/13 09:47:22;;;;;;;5.10;4.60;;;24.60;99.90;;;;;;5055484;28;20518;-45
2022/09/13 09:50:09;;;;;;;5.10;4.60;;;24.90;99.90;;;;;;5056173;28;20467;-48
2022/09/13 09:52:41;;;;;;;7.10;4.90;;;24.80;99.90;;;;;;5055416;28;20425;-47
2022/09/13 09:55:19;;;;;;;5.00;4.50;;;24.50;99.90;;;;;;5055954;28;20425;-47
2022/09/13 09:57:55;;;;;;;6.03;4.73;;;24.20;99.90;;;;;;5055688;28;20834;-55
2022/09/13 10:00:25;;;;;;;5.73;4.97;;;23.80;99.90;;;;;;5054978;28;20503;-51
2022/09/13 10:02:56;;;;;;;7.27;5.43;;;23.50;99.90;;;;;;5054777;28;20459;-49
2022/09/13 10:05:25;;;;;;;6.40;4.60;;;23.30;99.90;;;;;;5055739;28;20428;-49
2022/09/13 10:07:58;;;;;;;5.27;4.50;;;22.80;99.90;;;;;;5055495;28;20536;-44
2022/09/13 10:10:31;;;;;;;9.83;4.67;;;22.40;99.90;;;;;;5056220;28;20439;-40
2022/09/13 10:12:59;;;;;;;7.10;4.30;;;22.90;99.90;;;;;;5056235;28;20452;-50
2022/09/13 10:15:32;;;;;;;5.00;4.07;;;23.80;99.90;;;;;;5055978;28;20408;-42
2022/09/13 10:18:14;;;;;;;6.83;4.70;;;24.20;99.90;;;;;;5055636;28;20428;-46
2022/09/13 10:20:43;;;;;;;5.70;4.50;;;24.50;99.90;;;;;;5055189;28;20502;-51
2022/09/13 10:23:20;;;;;;;6.47;5.10;;;24.60;99.90;;;;;;5055161;28;20539;-49
2022/09/13 10:26:02;;;;;;;11.17;8.80;;;24.10;99.90;;;;;;5055086;28;20444;-43
2022/09/13 10:28:31;;;;;;;6.03;5.37;;;23.50;99.90;;;;;;5055499;28;20454;-48
2022/09/13 10:31:04;;;;;;;6.30;5.03;;;23.10;99.90;;;;;;5055387;28;20531;-39
2022/09/13 10:33:34;;;;;;;6.87;5.13;;;22.70;99.90;;;;;;5055753;28;20440;-49
2022/09/13 10:36:05;;;;;;;5.83;5.00;;;22.40;99.90;;;;;;5055915;28;20468;-44
2022/09/13 10:38:35;;;;;;;5.00;4.23;;;22.20;99.90;;;;;;5055750;28;20483;-44
2022/09/13 10:41:04;;;;;;;6.47;4.70;;;22.10;99.90;;;;;;5055885;28;20492;-50
2022/09/13 10:43:33;;;;;;;11.70;5.47;;;22.00;99.90;;;;;;5055341;28;20428;-48
2022/09/13 10:46:03;;;;;;;6.70;5.27;;;22.00;99.90;;;;;;5055610;28;20495;-39
2022/09/13 10:48:43;;;;;;;8.77;5.33;;;21.90;99.90;;;;;;5055573;28;20433;-49
2022/09/13 10:51:28;;;;;;;5.40;4.40;;;21.90;99.90;;;;;;5056207;28;20408;-41
2022/09/13 10:54:18;;;;;;;8.63;6.17;;;21.60;99.90;;;;;;5056367;28;20495;-43
2022/09/13 10:56:46;;;;;;;7.23;5.10;;;21.50;99.90;;;;;;5055852;28;20445;-42
2022/09/13 10:59:32;;;;;;;6.30;5.30;;;21.50;99.90;;;;;;5055783;28;20444;-48
2022/09/13 11:02:34;;;;;;;7.83;5.27;;;21.50;99.90;;;;;;5055920;28;20476;-46
2022/09/13 11:05:17;;;;;;;6.50;4.87;;;21.30;99.90;;;;;;5055607;28;20483;-43
2022/09/13 11:08:23;;;;;;;8.70;5.87;;;21.20;99.90;;;;;;5055671;28;20432;-48
2022/09/13 11:11:04;;;;;;;7.10;5.73;;;21.00;99.90;;;;;;5055949;28;20443;-45
2022/09/13 11:13:40;;;;;;;9.60;6.23;;;20.80;99.90;;;;;;5055572;28;20439;-49
2022/09/13 11:16:23;;;;;;;7.03;4.90;;;20.70;99.90;;;;;;5056108;28;20459;-49
2022/09/13 11:19:05;;;;;;;5.43;4.50;;;20.60;99.90;;;;;;5055940;28;20511;-42
2022/09/13 11:21:45;;;;;;;6.50;5.83;;;20.60;99.90;;;;;;5056048;28;20570;-38
2022/09/13 11:24:37;;;;;;;6.07;5.30;;;20.50;99.90;;;;;;5055961;28;20439;-48
2022/09/13 11:27:13;;;;;;;7.30;5.97;;;20.40;99.90;;;;;;5055791;28;20452;-41
2022/09/13 11:30:08;;;;;;;9.47;6.37;;;20.30;99.90;;;;;;5056064;28;20413;-42
2022/09/13 11:32:57;;;;;;;9.60;7.00;;;20.20;99.90;;;;;;5056088;28;20420;-47
2022/09/13 11:35:52;;;;;;;8.67;6.60;;;20.00;99.90;;;;;;5056030;28;20897;-45
2022/09/13 11:38:43;;;;;;;9.03;7.40;;;19.90;99.90;;;;;;5055825;28;20765;-50
2022/09/13 11:41:20;;;;;;;7.47;6.00;;;19.70;99.90;;;;;;5055779;28;20456;-40
2022/09/13 11:44:19;;;;;;;7.37;5.73;;;19.60;99.90;;;;;;5056100;28;20424;-42
2022/09/13 11:46:56;;;;;;;9.73;5.87;;;19.60;99.90;;;;;;5059923;28;20420;-46
2022/09/13 11:49:42;;;;;;;8.53;5.97;;;19.50;99.90;;;;;;5059812;28;20472;-50
2022/09/13 11:52:26;;;;;;;8.57;5.93;;;19.60;99.90;;;;;;5059424;28;20454;-50
2022/09/13 11:55:02;;;;;;;9.23;7.03;;;19.60;99.90;;;;;;5059589;28;20464;-45
2022/09/13 11:57:35;;;;;;;9.87;7.50;;;19.50;99.90;;;;;;5059505;28;20565;-49
2022/09/13 12:00:05;;;;;;;11.23;7.00;;;19.50;99.90;;;;;;5059587;28;20501;-41
2022/09/13 12:02:42;;;;;;;10.90;7.33;;;19.40;99.90;;;;;;5059103;28;20464;-47
2022/09/13 12:05:15;;;;;;;9.03;7.60;;;19.40;99.90;;;;;;5058977;28;20471;-51
2022/09/13 12:07:48;;;;;;;10.23;6.50;;;19.40;99.90;;;;;;5058978;28;20451;-45
2022/09/13 12:10:21;;;;;;;8.30;6.00;;;19.50;99.90;;;;;;5059227;28;20491;-49
2022/09/13 12:12:51;;;;;;;10.87;6.43;;;19.50;99.90;;;;;;5059206;28;20495;-45
2022/09/13 12:15:24;;;;;;;8.73;5.37;;;19.50;99.90;;;;;;5059216;28;20464;-45
2022/09/13 12:17:56;;;;;;;9.10;6.50;;;19.50;99.90;;;;;;5058823;28;20463;-50
2022/09/13 12:20:32;;;;;;;8.70;6.87;;;19.50;99.90;;;;;;5058675;28;20512;-48
2022/09/13 12:23:05;;;;;;;10.50;5.30;;;19.60;99.90;;;;;;5059112;28;20439;-43
2022/09/13 12:25:39;;;;;;;9.67;6.07;;;19.60;99.90;;;;;;5058838;28;20448;-49
2022/09/13 12:28:13;;;;;;;8.90;6.13;;;19.70;99.90;;;;;;5059143;28;20425;-45
2022/09/13 12:30:45;;;;;;;9.40;6.10;;;19.70;99.90;;;;;;5058833;28;20424;-48
2022/09/13 12:33:15;;;;;;;10.83;6.93;;;19.70;99.90;;;;;;5058726;28;20500;-46
2022/09/13 12:35:58;;;;;;;8.57;5.77;;;19.70;99.90;;;;;;5059385;28;20461;-44
2022/09/13 12:39:00;;;;;;;11.33;5.90;;;19.60;99.90;;;;;;5059291;28;20487;-46
2022/09/13 12:41:42;;;;;;;8.67;5.17;;;19.60;99.90;;;;;;5059547;28;20462;-46
2022/09/13 12:44:32;;;;;;;8.43;6.37;;;19.50;99.90;;;;;;5059001;28;20448;-42
2022/09/13 12:47:44;;;;;;;8.77;5.80;;;19.60;99.90;;;;;;5058920;28;20424;-42
2022/09/13 12:50:29;;;;;;;9.83;6.10;;;19.60;99.90;;;;;;5057234;28;20500;-44
2022/09/13 12:53:15;;;;;;;8.33;6.50;;;19.60;99.90;;;;;;5058827;28;20425;-41
2022/09/13 12:56:03;;;;;;;9.30;6.50;;;19.60;99.90;;;;;;5059164;28;20447;-43
2022/09/13 12:58:47;;;;;;;9.23;7.17;;;19.60;99.90;;;;;;5038495;28;20448;-48
2022/09/13 13:01:17;;;;;;;8.90;6.40;;;19.60;99.90;;;;;;5038583;28;20528;-47
2022/09/13 13:03:50;;;;;;;9.23;6.67;;;19.50;99.90;;;;;;5038447;28;20455;-44
2022/09/13 13:06:29;;;;;;;9.70;7.93;;;19.50;99.90;;;;;;5038024;28;20456;-42
2022/09/13 13:08:58;;;;;;;12.40;8.30;;;19.50;99.90;;;;;;5037542;28;20489;-48
2022/09/13 13:11:30;;;;;;;11.60;7.50;;;19.50;99.90;;;;;;5037181;28;20525;-47
2022/09/13 13:13:59;;;;;;;10.17;8.13;;;19.50;99.90;;;;;;5037440;28;20862;-41